createdAt,value
2022-10-23T00:02:07.160Z,98982.22
2022-10-23T00:04:36.585Z,98948.56
2022-10-23T00:07:06.114Z,99000.00
2022-10-23T00:09:34.840Z,99014.53
2022-10-23T00:12:03.657Z,99018.97
2022-10-23T00:14:32.496Z,99004.66
2022-10-23T00:17:01.466Z,99031.31
2022-10-23T00:19:31.066Z,99055.38
2022-10-23T00:22:00.097Z,99070.78
2022-10-23T00:24:29.414Z,99054.88
2022-10-23T00:26:58.798Z,99047.28
2022-10-23T00:29:29.006Z,99036.50
2022-10-23T00:31:58.429Z,99053.75
2022-10-23T00:34:28.025Z,99047.06
2022-10-23T00:36:56.591Z,99102.53
2022-10-23T00:39:25.429Z,99121.28
2022-10-23T00:41:54.117Z,99108.69
2022-10-23T00:44:22.777Z,99143.03
2022-10-23T00:46:51.545Z,99119.09
2022-10-23T00:49:21.511Z,99132.91
2022-10-23T00:51:58.096Z,99146.81
2022-10-23T00:54:30.947Z,99099.09
2022-10-23T00:57:03.056Z,99160.78
2022-10-23T00:59:32.916Z,99177.31
2022-10-23T01:02:01.905Z,99190.31
2022-10-23T01:04:31.636Z,99192.94
2022-10-23T01:07:15.716Z,99210.88
2022-10-23T01:10:14.403Z,99222.22
2022-10-23T01:13:05.285Z,99215.66
2022-10-23T01:15:58.203Z,99215.81
2022-10-23T01:19:10.538Z,99251.81
2022-10-23T01:22:22.288Z,99264.72
2022-10-23T01:25:12.921Z,99270.06
2022-10-23T01:27:45.497Z,99266.50
2022-10-23T01:30:19.098Z,99274.19
2022-10-23T01:33:07.970Z,99275.13
2022-10-23T01:35:51.259Z,99279.41
2022-10-23T01:38:40.416Z,99300.91
2022-10-23T01:41:40.588Z,99308.81
2022-10-23T01:44:15.880Z,99353.41
2022-10-23T01:46:48.234Z,99325.25
2022-10-23T01:49:18.739Z,99331.34
2022-10-23T01:51:55.815Z,99341.75
2022-10-23T01:54:30.422Z,99351.97
2022-10-23T01:57:00.302Z,99351.94
2022-10-23T01:59:37.824Z,99341.75
2022-10-23T02:02:12.855Z,99363.19
2022-10-23T02:05:12.284Z,99379.44
2022-10-23T02:07:41.453Z,99384.66
2022-10-23T02:10:11.733Z,99407.03
2022-10-23T02:13:21.257Z,99417.50
2022-10-23T02:16:06.871Z,99410.59
2022-10-23T02:18:54.203Z,99417.59
2022-10-23T02:21:40.211Z,99367.84
2022-10-23T02:24:15.076Z,99448.59
2022-10-23T02:27:00.352Z,99426.22
2022-10-23T02:29:40.008Z,99454.59
2022-10-23T02:32:10.942Z,99461.63
2022-10-23T02:34:42.912Z,99453.81
2022-10-23T02:37:12.616Z,99495.69
2022-10-23T02:39:44.585Z,99500.88
2022-10-23T02:42:30.348Z,99506.16
2022-10-23T02:45:46.109Z,99538.03
2022-10-23T02:48:23.719Z,99538.03
2022-10-23T02:51:19.195Z,99550.97
2022-10-23T02:54:08.447Z,99544.25
2022-10-23T02:57:11.083Z,99566.50
2022-10-23T02:59:54.320Z,99563.25
2022-10-23T03:02:27.923Z,99579.47
2022-10-23T03:04:57.597Z,99572.91
2022-10-23T03:07:28.008Z,99560.72
2022-10-23T03:10:04.855Z,99564.13
2022-10-23T03:12:34.533Z,99587.34
2022-10-23T03:15:05.421Z,99620.00
2022-10-23T03:17:34.849Z,99642.31
2022-10-23T03:20:05.565Z,99617.66
2022-10-23T03:22:35.197Z,99630.53
2022-10-23T03:25:04.558Z,99669.31
2022-10-23T03:27:34.439Z,99637.72
2022-10-23T03:30:07.119Z,99664.19
2022-10-23T03:32:39.455Z,99662.50
2022-10-23T03:35:08.714Z,99668.41
2022-10-23T03:37:37.559Z,99664.28
2022-10-23T03:40:06.684Z,99675.59
2022-10-23T03:42:36.691Z,99717.69
2022-10-23T03:45:06.100Z,99704.84
2022-10-23T03:47:36.422Z,99703.19
2022-10-23T03:50:05.458Z,99711.00
2022-10-23T03:52:35.883Z,99712.59
2022-10-23T03:55:05.289Z,99741.69
2022-10-23T03:57:34.160Z,99739.19
2022-10-23T04:00:03.101Z,99754.59
2022-10-23T04:02:33.992Z,99770.75
2022-10-23T04:05:02.649Z,99767.41
2022-10-23T04:07:34.253Z,99773.44
2022-10-23T04:10:06.275Z,99774.03
2022-10-23T04:12:36.482Z,99789.41
2022-10-23T04:15:05.859Z,99813.41
2022-10-23T04:17:34.735Z,99818.44
2022-10-23T04:20:03.697Z,99789.09
2022-10-23T04:22:32.939Z,99814.00
2022-10-23T04:25:02.094Z,99792.47
2022-10-23T04:27:32.421Z,99810.69
2022-10-23T04:30:01.850Z,99806.41
2022-10-23T04:32:32.141Z,99849.44
2022-10-23T04:35:00.964Z,99840.16
2022-10-23T04:37:31.798Z,99831.75
2022-10-23T04:40:01.951Z,99842.81
2022-10-23T04:42:30.770Z,99866.94
2022-10-23T04:45:02.403Z,99838.53
2022-10-23T04:47:31.768Z,99859.31
2022-10-23T04:50:01.447Z,99816.44
2022-10-23T04:52:54.813Z,99883.75
2022-10-23T04:55:54.352Z,99893.16
2022-10-23T04:58:46.059Z,99915.03
2022-10-23T05:01:14.991Z,99896.22
2022-10-23T05:03:44.900Z,99913.31
2022-10-23T05:06:14.374Z,99914.16
2022-10-23T05:09:01.947Z,99923.78
2022-10-23T05:11:46.513Z,99936.59
2022-10-23T05:14:17.153Z,99935.84
2022-10-23T05:16:55.426Z,99928.09
2022-10-23T05:19:30.398Z,99953.06
2022-10-23T05:21:58.809Z,99972.78
2022-10-23T05:24:32.697Z,99964.69
2022-10-23T05:27:03.670Z,99952.78
2022-10-23T05:29:33.385Z,99981.97
2022-10-23T05:32:05.204Z,99977.75
2022-10-23T05:34:39.092Z,99996.53
2022-10-23T05:37:11.831Z,99996.41
2022-10-23T05:39:41.476Z,99983.53
2022-10-23T05:42:14.237Z,99986.25
2022-10-23T05:44:43.669Z,99987.97
2022-10-23T05:47:46.366Z,99985.47
2022-10-23T05:50:47.356Z,100007.75
2022-10-23T05:53:27.451Z,100017.19
2022-10-23T05:56:09.717Z,100016.44
2022-10-23T05:58:46.958Z,99982.13
2022-10-23T06:01:27.885Z,100036.06
2022-10-23T06:04:04.819Z,100050.09
2022-10-23T06:06:53.178Z,100057.09
2022-10-23T06:09:22.497Z,100026.09
2022-10-23T06:11:56.457Z,100062.19
2022-10-23T06:14:25.441Z,100080.41
2022-10-23T06:16:55.620Z,100080.50
2022-10-23T06:19:25.891Z,100078.72
2022-10-23T06:21:57.780Z,100108.03
2022-10-23T06:24:43.056Z,100103.94
2022-10-23T06:27:14.540Z,100081.50
2022-10-23T06:29:45.293Z,100100.59
2022-10-23T06:32:14.159Z,100140.28
2022-10-23T06:34:48.337Z,100124.78
2022-10-23T06:37:17.157Z,100119.53
2022-10-23T06:39:56.198Z,100135.88
2022-10-23T06:42:38.138Z,100128.13
2022-10-23T06:45:26.669Z,100141.94
2022-10-23T06:48:15.597Z,100159.47
2022-10-23T06:50:50.117Z,100136.13
2022-10-23T06:53:25.637Z,100137.78
2022-10-23T06:56:07.376Z,100144.84
2022-10-23T06:58:39.011Z,100160.38
2022-10-23T07:01:17.459Z,100202.66
2022-10-23T07:03:46.897Z,100184.59
2022-10-23T07:06:17.540Z,100195.63
2022-10-23T07:08:46.557Z,100185.06
2022-10-23T07:11:35.041Z,100205.63
2022-10-23T07:14:03.716Z,100189.06
2022-10-23T07:16:32.975Z,100179.41
2022-10-23T07:19:02.783Z,100210.38
2022-10-23T07:21:35.692Z,100221.59
2022-10-23T07:24:28.267Z,100212.97
2022-10-23T07:26:59.037Z,100166.72
2022-10-23T07:29:30.333Z,100197.72
2022-10-23T07:31:59.293Z,100203.97
2022-10-23T07:34:43.313Z,100253.94
2022-10-23T07:37:20.671Z,100244.56
2022-10-23T07:39:49.293Z,100258.34
2022-10-23T07:42:17.911Z,100194.69
2022-10-23T07:44:47.261Z,100250.56
2022-10-23T07:47:16.159Z,100259.94
2022-10-23T07:49:48.873Z,100217.81
2022-10-23T07:52:18.898Z,100257.50
2022-10-23T07:55:10.870Z,100145.63
2022-10-23T07:57:45.455Z,100273.84
2022-10-23T08:00:25.639Z,100260.13
2022-10-23T08:03:03.139Z,100268.81
2022-10-23T08:05:33.367Z,100239.69
2022-10-23T08:08:03.798Z,100286.09
2022-10-23T08:10:32.937Z,100284.41
2022-10-23T08:13:02.222Z,100291.53
2022-10-23T08:15:54.183Z,100295.94
2022-10-23T08:18:46.097Z,100303.78
2022-10-23T08:21:15.016Z,100306.31
2022-10-23T08:23:43.956Z,100308.22
2022-10-23T08:26:13.058Z,100303.13
2022-10-23T08:28:42.434Z,100309.16
2022-10-23T08:31:18.301Z,100307.19
2022-10-23T08:34:04.901Z,100322.09
2022-10-23T08:36:34.766Z,100338.53
2022-10-23T08:39:05.400Z,100338.66
2022-10-23T08:41:39.253Z,100342.38
2022-10-23T08:44:23.392Z,100370.31
2022-10-23T08:47:09.403Z,100355.69
2022-10-23T08:50:11.640Z,100356.09
2022-10-23T08:52:43.534Z,100353.44
2022-10-23T08:55:38.681Z,100371.53
2022-10-23T08:58:32.715Z,100371.63
2022-10-23T09:01:01.750Z,100365.03
2022-10-23T09:03:30.768Z,100360.84
2022-10-23T09:06:17.273Z,100369.63
2022-10-23T09:09:09.457Z,100395.56
2022-10-23T09:11:48.199Z,100387.84
2022-10-23T09:14:36.175Z,100380.22
2022-10-23T09:17:28.650Z,100398.41
2022-10-23T09:20:19.564Z,100416.66
2022-10-23T09:22:50.765Z,100411.44
2022-10-23T09:25:28.388Z,100411.38
2022-10-23T09:28:01.598Z,100410.81
2022-10-23T09:30:33.864Z,100439.28
2022-10-23T09:33:15.547Z,100438.41
2022-10-23T09:36:14.684Z,100444.59
2022-10-23T09:38:46.442Z,100446.38
2022-10-23T09:41:30.306Z,100428.38
2022-10-23T09:44:23.331Z,100440.56
2022-10-23T09:46:54.658Z,100461.31
2022-10-23T09:49:25.808Z,100445.88
2022-10-23T09:52:05.070Z,100461.41
2022-10-23T09:54:38.971Z,100461.53
2022-10-23T09:57:30.189Z,100470.25
2022-10-23T10:00:04.638Z,100458.28
2022-10-23T10:02:40.085Z,100471.25
2022-10-23T10:05:27.633Z,100496.34
2022-10-23T10:08:22.355Z,100508.56
2022-10-23T10:11:11.470Z,100503.41
2022-10-23T10:14:20.958Z,100468.88
2022-10-23T10:17:01.625Z,100477.66
2022-10-23T10:20:03.720Z,100513.97
2022-10-23T10:23:14.576Z,100517.44
2022-10-23T10:26:02.337Z,100522.75
2022-10-23T10:29:09.197Z,100538.34
2022-10-23T10:31:43.063Z,100552.25
2022-10-23T10:34:29.718Z,100560.97
2022-10-23T10:37:02.871Z,100545.44
2022-10-23T10:39:50.910Z,100567.91
2022-10-23T10:42:46.129Z,100574.03
2022-10-23T10:45:48.747Z,100577.50
2022-10-23T10:48:35.538Z,100588.78
2022-10-23T10:51:22.549Z,100593.16
2022-10-23T10:53:56.788Z,100588.78
2022-10-23T10:56:30.648Z,100576.75
2022-10-23T10:59:06.885Z,100576.88
2022-10-23T11:02:02.148Z,100582.91
2022-10-23T11:04:55.992Z,100589.00
2022-10-23T11:07:30.503Z,100596.81
2022-10-23T11:10:03.706Z,100618.47
2022-10-23T11:12:33.464Z,100600.41
2022-10-23T11:15:02.117Z,100625.44
2022-10-23T11:17:41.179Z,100624.63
2022-10-23T11:20:15.563Z,100634.09
2022-10-23T11:22:57.423Z,100615.16
2022-10-23T11:26:10.899Z,100635.91
2022-10-23T11:29:06.780Z,100658.50
2022-10-23T11:31:44.737Z,100663.72
2022-10-23T11:34:38.218Z,100668.09
2022-10-23T11:37:07.527Z,100638.72
2022-10-23T11:39:40.317Z,100652.53
2022-10-23T11:42:28.899Z,100653.41
2022-10-23T11:45:00.362Z,100662.94
2022-10-23T11:47:57.279Z,100647.34
2022-10-23T11:50:32.217Z,100669.91
2022-10-23T11:53:15.961Z,100644.91
2022-10-23T11:56:28.011Z,100687.28
2022-10-23T11:58:59.502Z,100685.50
2022-10-23T12:01:40.339Z,100657.09
2022-10-23T12:04:14.939Z,100711.63
2022-10-23T12:07:00.735Z,100688.28
2022-10-23T12:09:36.721Z,100717.75
2022-10-23T12:12:08.462Z,100722.09
2022-10-23T12:14:43.680Z,100722.97
2022-10-23T12:17:27.162Z,100734.28
2022-10-23T12:20:03.850Z,100687.59
2022-10-23T12:23:01.950Z,100741.25
2022-10-23T12:25:51.174Z,100741.25
2022-10-23T12:28:37.742Z,100734.41
2022-10-23T12:31:23.532Z,100751.75
2022-10-23T12:33:57.611Z,100766.53
2022-10-23T12:36:34.790Z,100767.38
2022-10-23T12:39:03.390Z,100754.41
2022-10-23T12:41:35.775Z,100744.06
2022-10-23T12:44:06.452Z,100740.66
2022-10-23T12:46:42.810Z,100759.66
2022-10-23T12:49:17.657Z,100751.88
2022-10-23T12:51:45.994Z,100790.97
2022-10-23T12:54:17.792Z,100777.97
2022-10-23T12:59:40.032Z,100806.63
2022-10-23T13:02:28.720Z,100816.19
2022-10-23T13:05:01.916Z,100818.81
2022-10-23T13:07:34.805Z,100805.81
2022-10-23T13:10:06.023Z,100822.28
2022-10-23T13:12:40.142Z,100793.75
2022-10-23T13:15:11.665Z,100836.22
2022-10-23T13:18:15.287Z,100842.34
2022-10-23T13:20:56.835Z,100806.84
2022-10-23T13:23:33.765Z,100810.34
2022-10-23T13:26:06.725Z,100852.78
2022-10-23T13:28:43.404Z,100851.97
2022-10-23T13:31:12.310Z,100863.25
2022-10-23T13:33:47.487Z,100829.47
2022-10-23T13:36:16.172Z,100871.09
2022-10-23T13:39:00.533Z,100870.25
2022-10-23T13:41:36.286Z,100858.97
2022-10-23T13:44:05.227Z,100885.06
2022-10-23T13:46:34.085Z,100842.56
2022-10-23T13:49:04.472Z,100827.84
2022-10-23T13:51:41.688Z,100879.00
2022-10-23T13:54:33.098Z,100891.16
2022-10-23T13:57:01.566Z,100907.66
2022-10-23T13:59:30.220Z,100891.19
2022-10-23T14:02:01.685Z,100892.03
2022-10-23T14:04:30.680Z,100901.63
2022-10-23T14:06:59.311Z,100889.47
2022-10-23T14:09:27.764Z,100910.31
2022-10-23T14:11:56.332Z,100912.91
2022-10-23T14:14:24.876Z,100910.34
2022-10-23T14:16:53.861Z,100916.44
2022-10-23T14:19:22.683Z,100915.63
2022-10-23T14:21:51.166Z,100936.41
2022-10-23T14:24:19.743Z,100919.91
2022-10-23T14:26:48.435Z,100943.38
2022-10-23T14:29:23.051Z,100925.13
2022-10-23T14:31:53.004Z,100918.22
2022-10-23T14:34:21.522Z,100939.06
2022-10-23T14:36:56.681Z,100946.03
2022-10-23T14:39:32.448Z,100926.97
2022-10-23T14:42:01.004Z,100957.31
2022-10-23T14:44:29.884Z,100971.25
2022-10-23T14:47:00.006Z,100950.41
2022-10-23T14:49:28.551Z,100900.13
2022-10-23T14:51:57.143Z,100958.25
2022-10-23T14:54:25.725Z,100942.63
2022-10-23T14:56:54.346Z,100927.03
2022-10-23T14:59:22.942Z,100977.34
2022-10-23T15:01:51.401Z,100953.94
2022-10-23T15:04:23.779Z,100984.31
2022-10-23T15:06:52.880Z,100965.19
2022-10-23T15:09:22.858Z,100985.19
2022-10-23T15:14:27.000Z,100982.59
2022-10-23T15:16:55.629Z,100964.38
2022-10-23T15:19:24.746Z,100993.88
2022-10-23T15:21:53.420Z,100992.16
2022-10-23T15:24:24.961Z,100943.59
2022-10-23T15:26:53.843Z,101002.59
2022-10-23T15:29:23.548Z,100999.13
2022-10-23T15:32:11.247Z,101001.75
2022-10-23T15:34:43.282Z,101019.09
2022-10-23T15:37:12.371Z,100994.84
2022-10-23T15:39:40.926Z,101024.34
2022-10-23T15:42:12.464Z,101029.56
2022-10-23T15:44:41.863Z,101023.50
2022-10-23T15:47:10.505Z,101040.00
2022-10-23T15:49:40.807Z,101020.91
2022-10-23T15:54:44.062Z,101008.75
2022-10-23T15:57:15.868Z,101049.59
2022-10-23T15:59:45.187Z,101027.88
2022-10-23T16:02:14.206Z,101060.88
2022-10-23T16:04:42.921Z,101044.38
2022-10-23T16:07:11.239Z,101059.19
2022-10-23T16:09:39.841Z,101064.34
2022-10-23T16:12:08.791Z,101053.09
2022-10-23T16:14:37.432Z,101040.09
2022-10-23T16:17:06.294Z,101027.91
2022-10-23T16:19:35.703Z,101059.16
2022-10-23T16:22:04.447Z,101067.88
2022-10-23T16:24:33.763Z,101053.13
2022-10-23T16:27:02.360Z,101078.28
2022-10-23T16:29:30.982Z,101086.13
2022-10-23T16:32:00.682Z,101064.41
2022-10-23T16:34:30.340Z,101080.06
2022-10-23T16:36:58.936Z,101062.66
2022-10-23T16:39:27.577Z,101027.06
2022-10-23T16:42:14.516Z,101093.94
2022-10-23T16:44:58.827Z,101084.38
2022-10-23T16:47:27.597Z,101045.28
2022-10-23T16:49:56.243Z,101070.50
2022-10-23T16:52:25.242Z,101085.25
2022-10-23T16:54:54.040Z,101111.31
2022-10-23T16:57:22.596Z,101078.28
2022-10-23T16:59:51.321Z,101105.25
2022-10-23T17:02:20.276Z,101078.28
2022-10-23T17:04:48.745Z,101085.25
2022-10-23T17:07:17.501Z,101085.25
2022-10-23T17:09:47.402Z,101088.75
2022-10-23T17:12:16.817Z,101117.44
2022-10-23T17:14:45.464Z,101113.06
2022-10-23T17:17:14.377Z,101113.06
2022-10-23T17:19:45.520Z,101123.50
2022-10-23T17:22:17.349Z,101123.50
2022-10-23T17:24:48.874Z,101113.06
2022-10-23T17:27:23.765Z,101102.63
2022-10-23T17:29:52.459Z,101088.72
2022-10-23T17:34:56.131Z,101109.56
2022-10-23T17:37:26.309Z,101120.00
2022-10-23T17:39:57.145Z,101115.66
2022-10-23T17:42:27.606Z,101074.78
2022-10-23T17:44:56.188Z,101117.38
2022-10-23T17:47:24.782Z,101130.41
2022-10-23T17:49:53.395Z,101125.19
2022-10-23T17:52:21.937Z,101133.03
2022-10-23T17:54:53.538Z,101127.81
2022-10-23T17:59:55.313Z,101103.47
2022-10-23T18:02:23.928Z,101114.75
2022-10-23T18:04:53.058Z,101125.19
2022-10-23T18:07:21.796Z,101108.69
2022-10-23T18:09:50.617Z,101132.16
2022-10-23T18:12:19.327Z,101081.75
2022-10-23T18:14:47.985Z,101105.19
2022-10-23T18:17:16.655Z,101127.81
2022-10-23T18:19:45.299Z,101133.00
2022-10-23T18:22:14.160Z,101150.38
2022-10-23T18:24:42.804Z,101155.63
2022-10-23T18:27:11.277Z,101139.94
2022-10-23T18:29:43.217Z,101154.75
2022-10-23T18:32:11.758Z,101162.56
2022-10-23T18:34:40.157Z,101156.47
2022-10-23T18:37:08.580Z,101153.00
2022-10-23T18:39:37.336Z,101133.03
2022-10-23T18:42:05.901Z,101140.84
2022-10-23T18:44:35.236Z,101094.75
2022-10-23T18:47:03.902Z,101123.41
2022-10-23T18:49:32.437Z,101128.66
2022-10-23T18:52:01.250Z,101146.03
2022-10-23T18:54:30.254Z,101160.84
2022-10-23T18:56:58.997Z,101138.22
2022-10-23T18:59:27.596Z,101140.84
2022-10-23T19:01:56.209Z,101112.13
2022-10-23T19:04:25.060Z,101159.97
2022-10-23T19:06:53.618Z,101138.22
2022-10-23T19:09:22.297Z,101136.47
2022-10-23T19:11:50.917Z,101159.09
2022-10-23T19:14:19.532Z,101160.81
2022-10-23T19:17:05.979Z,101166.03
2022-10-23T19:19:52.977Z,101143.44
2022-10-23T19:22:21.473Z,101153.00
2022-10-23T19:24:57.028Z,101161.69
2022-10-23T19:27:27.718Z,101141.69
2022-10-23T19:29:56.821Z,101150.38
2022-10-23T19:32:25.266Z,101163.44
2022-10-23T19:34:53.930Z,101171.25
2022-10-23T19:37:22.540Z,101130.38
2022-10-23T19:39:51.218Z,101158.22
2022-10-23T19:42:19.676Z,101157.34
2022-10-23T19:44:48.140Z,101151.25
2022-10-23T19:47:16.658Z,101148.63
2022-10-23T19:49:45.120Z,101150.38
2022-10-23T19:52:13.569Z,101153.00
2022-10-23T19:54:42.438Z,101144.28
2022-10-23T19:57:11.777Z,101174.72
2022-10-23T19:59:40.657Z,101143.41
2022-10-23T20:02:09.248Z,101151.25
2022-10-23T20:04:38.017Z,101163.38
2022-10-23T20:07:06.940Z,101126.00
2022-10-23T20:09:35.495Z,101169.50
2022-10-23T20:12:05.319Z,101158.19
2022-10-23T20:14:34.300Z,101100.78
2022-10-23T20:17:03.535Z,101155.56
2022-10-23T20:19:32.655Z,101142.50
2022-10-23T20:22:01.414Z,101154.66
2022-10-23T20:24:30.677Z,101153.78
2022-10-23T20:26:59.298Z,101186.00
2022-10-23T20:29:28.068Z,101161.63
2022-10-23T20:31:56.717Z,101156.41
2022-10-23T20:34:25.076Z,101187.72
2022-10-23T20:36:53.558Z,101173.78
2022-10-23T20:39:26.415Z,101159.00
2022-10-23T20:41:58.067Z,101126.81
2022-10-23T20:44:27.098Z,101179.00
2022-10-23T20:46:56.177Z,101164.22
2022-10-23T20:49:25.157Z,101184.22
2022-10-23T20:51:57.789Z,101192.91
2022-10-23T20:54:29.497Z,101187.72
2022-10-23T20:56:59.716Z,101168.56
2022-10-23T20:59:29.390Z,101158.13
2022-10-23T21:01:58.725Z,101192.03
2022-10-23T21:04:29.368Z,101158.97
2022-10-23T21:07:14.354Z,101151.16
2022-10-23T21:09:43.637Z,101152.91
2022-10-23T21:12:12.118Z,101191.16
2022-10-23T21:14:40.839Z,101165.06
2022-10-23T21:17:11.759Z,101158.97
2022-10-23T21:19:40.347Z,101160.69
2022-10-23T21:22:09.026Z,101177.22
2022-10-23T21:24:38.770Z,101122.41
2022-10-23T21:27:08.068Z,101175.44
2022-10-23T21:29:37.997Z,101177.19
2022-10-23T21:32:06.657Z,101105.91
2022-10-23T21:34:35.776Z,101192.00
2022-10-23T21:37:14.197Z,101185.91
2022-10-23T21:39:44.507Z,101173.69
2022-10-23T21:42:15.410Z,101157.19
2022-10-23T21:44:44.238Z,101177.22
2022-10-23T21:47:13.359Z,101143.25
2022-10-23T21:49:42.611Z,101170.22
2022-10-23T21:52:12.390Z,101167.56
2022-10-23T21:54:45.505Z,101172.81
2022-10-23T21:57:15.617Z,101192.81
2022-10-23T21:59:45.196Z,101140.66
2022-10-23T22:02:13.800Z,101191.09
2022-10-23T22:04:45.978Z,101189.38
2022-10-23T22:07:15.801Z,101160.63
2022-10-23T22:09:45.499Z,101182.38
2022-10-23T22:12:14.453Z,101162.38
2022-10-23T22:14:43.660Z,101134.53
2022-10-23T22:17:14.056Z,101176.31
2022-10-23T22:19:42.699Z,101161.53
2022-10-23T22:22:11.278Z,101145.00
2022-10-23T22:24:40.237Z,101149.31
2022-10-23T22:27:09.098Z,101159.75
2022-10-23T22:29:37.488Z,101178.03
2022-10-23T22:32:06.970Z,101189.38
2022-10-23T22:34:53.346Z,101118.00
2022-10-23T22:37:22.718Z,101179.75
2022-10-23T22:39:52.903Z,101160.63
2022-10-23T22:42:22.610Z,101179.78
2022-10-23T22:44:51.101Z,101128.47
2022-10-23T22:47:19.493Z,101145.84
2022-10-23T22:49:48.859Z,101152.78
2022-10-23T22:52:17.587Z,101131.91
2022-10-23T22:54:46.077Z,101170.16
2022-10-23T22:57:14.605Z,101168.44
2022-10-23T22:59:43.217Z,101185.84
2022-10-23T23:02:11.574Z,101155.41
2022-10-23T23:04:40.277Z,101159.69
2022-10-23T23:07:10.907Z,101131.84
2022-10-23T23:09:42.195Z,101184.94
2022-10-23T23:12:13.260Z,101169.25
2022-10-23T23:14:42.964Z,101194.47
2022-10-23T23:17:12.507Z,101171.81
2022-10-23T23:19:40.998Z,101163.97
2022-10-23T23:22:09.655Z,101160.44
2022-10-23T23:24:38.158Z,101197.91
2022-10-23T23:27:06.828Z,101176.09
2022-10-23T23:29:35.634Z,101163.91
2022-10-23T23:32:06.846Z,101169.97
2022-10-23T23:34:35.255Z,101160.38
2022-10-23T23:37:04.040Z,101181.22
2022-10-23T23:39:32.704Z,101141.22
2022-10-23T23:42:01.371Z,101173.38
2022-10-23T23:44:29.768Z,101172.56
2022-10-23T23:46:58.498Z,101171.66
2022-10-23T23:49:27.129Z,101151.63
2022-10-23T23:51:55.624Z,101174.22
2022-10-23T23:54:24.201Z,101169.03
2022-10-23T23:56:52.589Z,101150.72
2022-10-23T23:59:21.173Z,101148.94
